createdAt,value
2022-11-05T00:00:38.469Z,17.35
2022-11-05T00:03:24.009Z,16.98
2022-11-05T00:06:12.123Z,17.15
2022-11-05T00:08:59.936Z,12.52
2022-11-05T00:11:45.579Z,15.23
2022-11-05T00:14:31.862Z,14.98
2022-11-05T00:17:00.214Z,15.88
2022-11-05T00:19:27.266Z,13.77
2022-11-05T00:22:12.799Z,15.27
2022-11-05T00:24:58.500Z,11.90
2022-11-05T00:27:26.145Z,15.40
2022-11-05T00:29:53.296Z,13.48
2022-11-05T00:32:20.285Z,15.70
2022-11-05T00:34:48.114Z,11.73
2022-11-05T00:37:15.376Z,12.02
2022-11-05T00:39:42.416Z,14.70
2022-11-05T00:42:28.354Z,14.60
2022-11-05T00:45:04.272Z,12.85
2022-11-05T00:47:51.224Z,11.88
2022-11-05T00:50:19.576Z,12.82
2022-11-05T00:52:57.419Z,9.13
2022-11-05T00:55:46.133Z,16.42
2022-11-05T00:58:16.453Z,11.93
2022-11-05T01:00:45.750Z,9.63
2022-11-05T01:03:16.514Z,15.52
2022-11-05T01:05:49.581Z,12.57
2022-11-05T01:08:19.217Z,16.17
2022-11-05T01:10:50.012Z,11.27
2022-11-05T01:13:26.187Z,16.23
2022-11-05T01:15:53.953Z,14.63
2022-11-05T01:18:21.929Z,17.27
2022-11-05T01:20:50.471Z,19.27
2022-11-05T01:23:19.270Z,22.33
2022-11-05T01:25:46.648Z,13.88
2022-11-05T01:28:14.093Z,13.43
2022-11-05T01:30:44.486Z,17.98
2022-11-05T01:33:11.856Z,20.45
2022-11-05T01:35:40.942Z,19.02
2022-11-05T01:38:08.478Z,16.35
2022-11-05T01:40:35.856Z,17.25
2022-11-05T01:43:03.723Z,18.63
2022-11-05T01:45:30.797Z,14.43
2022-11-05T01:48:09.788Z,17.38
2022-11-05T01:51:08.923Z,15.15
2022-11-05T01:53:50.373Z,13.20
2022-11-05T01:56:23.088Z,13.45
2022-11-05T01:59:03.482Z,13.63
2022-11-05T02:01:31.027Z,19.73
2022-11-05T02:04:03.045Z,13.82
2022-11-05T02:09:23.380Z,18.00
2022-11-05T02:11:51.424Z,17.45
2022-11-05T02:14:18.663Z,15.25
2022-11-05T02:16:56.466Z,18.00
2022-11-05T02:19:49.104Z,15.57
2022-11-05T02:22:37.130Z,14.18
2022-11-05T02:25:28.280Z,14.15
2022-11-05T02:28:18.691Z,15.82
2022-11-05T02:30:51.623Z,16.88
2022-11-05T02:33:37.566Z,15.15
2022-11-05T02:36:31.716Z,14.13
2022-11-05T02:39:15.900Z,18.92
2022-11-05T02:42:07.186Z,18.40
2022-11-05T02:44:37.617Z,15.93
2022-11-05T02:47:27.698Z,16.85
2022-11-05T02:50:10.673Z,16.88
2022-11-05T02:52:58.054Z,16.17
2022-11-05T02:55:40.236Z,13.95
2022-11-05T02:58:07.478Z,12.70
2022-11-05T03:00:43.464Z,19.20
2022-11-05T03:03:42.231Z,13.68
2022-11-05T03:06:43.942Z,13.77
2022-11-05T03:09:20.766Z,15.82
2022-11-05T03:12:21.805Z,17.27
2022-11-05T03:15:11.923Z,17.45
2022-11-05T03:18:11.691Z,16.48
2022-11-05T03:21:01.462Z,14.60
2022-11-05T03:23:47.161Z,16.88
2022-11-05T03:26:54.521Z,19.02
2022-11-05T03:29:28.130Z,15.02
2022-11-05T03:31:58.146Z,20.02
2022-11-05T03:34:34.300Z,17.77
2022-11-05T03:37:04.746Z,18.10
2022-11-05T03:39:37.888Z,14.32
2022-11-05T03:42:10.496Z,14.45
2022-11-05T03:44:42.672Z,14.43
2022-11-05T03:49:47.713Z,16.67
2022-11-05T03:52:23.648Z,13.52
2022-11-05T03:54:51.231Z,16.85
2022-11-05T03:57:26.304Z,18.20
2022-11-05T03:59:53.250Z,15.23
2022-11-05T04:02:28.419Z,17.63
2022-11-05T04:04:55.544Z,25.25
2022-11-05T04:07:41.165Z,20.08
2022-11-05T04:10:30.014Z,30.38
2022-11-05T04:13:15.974Z,23.25
2022-11-05T04:16:02.390Z,30.05
2022-11-05T04:18:29.542Z,20.95
2022-11-05T04:21:17.128Z,26.33
2022-11-05T04:24:02.808Z,15.75
2022-11-05T04:26:31.374Z,15.63
2022-11-05T04:29:17.351Z,15.48
2022-11-05T04:31:44.528Z,18.08
2022-11-05T04:34:11.604Z,17.27
2022-11-05T04:36:38.510Z,18.73
2022-11-05T04:39:05.435Z,17.15
2022-11-05T04:41:32.393Z,18.13
2022-11-05T04:43:59.495Z,14.90
2022-11-05T04:46:27.227Z,15.68
2022-11-05T04:48:54.224Z,18.88
2022-11-05T04:51:21.392Z,15.13
2022-11-05T04:53:49.000Z,17.55
2022-11-05T04:56:19.923Z,19.80
2022-11-05T04:58:47.422Z,15.05
2022-11-05T05:01:20.471Z,17.25
2022-11-05T05:03:50.762Z,16.92
2022-11-05T05:06:19.000Z,21.15
2022-11-05T05:08:51.321Z,20.42
2022-11-05T05:11:20.467Z,26.33
2022-11-05T05:13:48.902Z,20.88
2022-11-05T05:16:26.773Z,26.83
2022-11-05T05:18:54.778Z,26.70
2022-11-05T05:21:42.835Z,25.02
2022-11-05T05:24:15.638Z,28.80
2022-11-05T05:26:44.812Z,22.52
2022-11-05T05:29:12.268Z,23.80
2022-11-05T05:31:40.710Z,24.48
2022-11-05T05:34:11.731Z,27.58
2022-11-05T05:36:39.864Z,25.55
2022-11-05T05:39:13.117Z,32.20
2022-11-05T05:41:41.538Z,29.13
2022-11-05T05:44:08.478Z,24.38
2022-11-05T05:46:35.393Z,25.23
2022-11-05T05:49:05.422Z,28.13
2022-11-05T05:51:34.871Z,22.35
2022-11-05T05:54:01.789Z,22.23
2022-11-05T05:56:28.804Z,21.77
2022-11-05T05:58:55.873Z,22.42
2022-11-05T06:01:23.533Z,23.08
2022-11-05T06:03:50.580Z,25.02
2022-11-05T06:06:23.178Z,34.17
2022-11-05T06:08:50.563Z,22.30
2022-11-05T06:11:17.521Z,25.63
2022-11-05T06:13:45.380Z,29.63
2022-11-05T06:16:12.548Z,25.17
2022-11-05T06:18:40.800Z,30.83
2022-11-05T06:21:16.743Z,27.25
2022-11-05T06:23:45.738Z,29.40
2022-11-05T06:26:16.899Z,29.23
2022-11-05T06:28:44.170Z,27.10
2022-11-05T06:31:13.761Z,28.25
2022-11-05T06:33:41.024Z,30.17
2022-11-05T06:36:15.861Z,28.35
2022-11-05T06:38:43.072Z,29.27
2022-11-05T06:41:10.750Z,31.77
2022-11-05T06:43:38.880Z,30.67
2022-11-05T06:46:05.935Z,33.83
2022-11-05T06:48:33.188Z,24.58
2022-11-05T06:51:00.113Z,35.92
2022-11-05T06:53:27.236Z,24.98
2022-11-05T06:55:55.637Z,24.80
2022-11-05T06:58:23.726Z,30.58
2022-11-05T07:00:50.708Z,25.75
2022-11-05T07:03:18.490Z,27.38
2022-11-05T07:05:48.134Z,28.63
2022-11-05T07:08:15.382Z,25.88
2022-11-05T07:10:43.962Z,25.00
2022-11-05T07:13:11.882Z,29.30
2022-11-05T07:15:39.293Z,25.30
2022-11-05T07:18:08.342Z,19.15
2022-11-05T07:20:35.994Z,24.65
2022-11-05T07:23:08.620Z,25.67
2022-11-05T07:25:37.933Z,23.65
2022-11-05T07:28:05.142Z,23.55
2022-11-05T07:30:33.120Z,20.90
2022-11-05T07:33:00.396Z,21.52
2022-11-05T07:35:27.504Z,22.60
2022-11-05T07:37:57.512Z,25.55
2022-11-05T07:40:26.885Z,22.65
2022-11-05T07:42:57.855Z,16.98
2022-11-05T07:45:26.308Z,19.95
2022-11-05T07:47:59.199Z,19.27
2022-11-05T07:50:29.541Z,23.92
2022-11-05T07:53:07.986Z,19.17
2022-11-05T07:55:35.275Z,17.00
2022-11-05T07:58:02.233Z,21.83
2022-11-05T08:00:29.973Z,18.30
2022-11-05T08:03:04.014Z,17.02
2022-11-05T08:05:39.590Z,20.95
2022-11-05T08:08:10.700Z,25.67
2022-11-05T08:10:38.925Z,23.45
2022-11-05T08:13:06.791Z,22.08
2022-11-05T08:15:35.375Z,15.90
2022-11-05T08:18:06.338Z,17.38
2022-11-05T08:20:34.026Z,17.38
2022-11-05T08:23:01.633Z,20.52
2022-11-05T08:25:29.009Z,19.80
2022-11-05T08:27:57.028Z,17.17
2022-11-05T08:30:25.584Z,20.27
2022-11-05T08:32:58.883Z,17.83
2022-11-05T08:35:27.287Z,22.50
2022-11-05T08:38:00.765Z,18.52
2022-11-05T08:40:27.835Z,19.50
2022-11-05T08:42:58.169Z,20.80
2022-11-05T08:45:27.008Z,21.02
2022-11-05T08:48:05.216Z,18.73
2022-11-05T08:50:33.842Z,19.00
2022-11-05T08:53:00.884Z,22.67
2022-11-05T08:55:27.833Z,17.90
2022-11-05T08:57:59.022Z,19.05
2022-11-05T09:00:27.610Z,16.43
2022-11-05T09:02:55.688Z,17.58
2022-11-05T09:05:22.630Z,19.33
2022-11-05T09:07:50.035Z,20.70
2022-11-05T09:10:17.188Z,17.65
2022-11-05T09:12:44.611Z,18.00
2022-11-05T09:15:11.965Z,19.25
2022-11-05T09:17:39.136Z,19.10
2022-11-05T09:20:07.471Z,19.45
2022-11-05T09:22:37.956Z,20.02
2022-11-05T09:25:09.335Z,20.45
2022-11-05T09:27:36.286Z,23.00
2022-11-05T09:30:03.772Z,22.95
2022-11-05T09:32:32.119Z,18.42
2022-11-05T09:35:01.270Z,23.30
2022-11-05T09:37:28.737Z,18.60
2022-11-05T09:39:55.774Z,18.80
2022-11-05T09:42:26.608Z,21.27
2022-11-05T09:45:04.274Z,15.70
2022-11-05T09:47:36.362Z,17.15
2022-11-05T09:52:33.876Z,17.33
2022-11-05T09:55:03.803Z,18.05
2022-11-05T09:57:44.420Z,17.35
2022-11-05T10:00:16.990Z,16.60
2022-11-05T10:02:57.556Z,17.80
2022-11-05T10:05:26.456Z,18.60
2022-11-05T10:08:07.707Z,15.02
2022-11-05T10:10:40.620Z,16.35
2022-11-05T10:13:25.632Z,16.38
2022-11-05T10:16:02.063Z,15.93
2022-11-05T10:18:36.177Z,13.32
2022-11-05T10:21:04.060Z,19.23
2022-11-05T10:23:31.043Z,17.13
2022-11-05T10:26:06.586Z,16.85
2022-11-05T10:28:34.955Z,24.55
2022-11-05T10:31:06.484Z,15.73
2022-11-05T10:33:46.632Z,14.93
2022-11-05T10:36:30.190Z,16.95
2022-11-05T10:39:02.769Z,11.80
2022-11-05T10:41:53.953Z,13.07
2022-11-05T10:44:44.355Z,15.10
2022-11-05T10:47:43.857Z,13.05
2022-11-05T10:50:20.057Z,15.25
2022-11-05T10:52:55.804Z,13.32
2022-11-05T10:55:33.054Z,15.38
2022-11-05T10:58:15.694Z,15.20
2022-11-05T11:01:00.873Z,25.52
2022-11-05T11:03:50.419Z,17.80
2022-11-05T11:06:27.807Z,12.45
2022-11-05T11:09:06.187Z,25.83
2022-11-05T11:11:37.068Z,17.08
2022-11-05T11:14:11.788Z,13.82
2022-11-05T11:16:41.965Z,17.67
2022-11-05T11:19:21.062Z,14.13
2022-11-05T11:22:06.266Z,11.82
2022-11-05T11:24:47.211Z,14.77
2022-11-05T11:27:23.000Z,11.98
2022-11-05T11:30:02.787Z,18.10
2022-11-05T11:32:36.733Z,11.32
2022-11-05T11:35:04.418Z,11.20
2022-11-05T11:37:33.410Z,13.82
2022-11-05T11:40:03.196Z,9.40
2022-11-05T11:42:32.426Z,9.95
2022-11-05T11:45:03.307Z,7.70
2022-11-05T11:47:30.414Z,12.20
2022-11-05T11:49:58.576Z,6.30
2022-11-05T11:52:32.006Z,9.30
2022-11-05T11:55:11.203Z,6.43
2022-11-05T11:57:46.598Z,6.53
2022-11-05T12:05:34.448Z,8.60
2022-11-05T12:08:03.450Z,9.23
2022-11-05T12:24:18.602Z,6.30
